ADDS METAR Data INFO
IDs: Format: Raw Decoded Include TAF

Data at: 2003 UTC 19 Oct 2017

KCFV 191952Z AUTO 18011KT 10SM CLR 25/12 A3010 RMK AO2 SLP189 T02500122
KCFV 191852Z AUTO 19010KT 10SM CLR 25/13 A3012 RMK AO2 SLP195 T02500128
KCFV 191752Z AUTO 18012KT 10SM CLR 24/12 A3014 RMK AO2 SLP202 T02440122 10244 20094 58006
KCFV 191652Z AUTO 18011KT 10SM CLR 23/12 A3015 RMK AO2 SLP207 T02330122
KCFV 191552Z AUTO 20009KT 10SM CLR 21/12 A3016 RMK AO2 SLP210 T02060122
KCFV 191452Z AUTO 18010KT 10SM CLR 17/12 A3015 RMK AO2 SLP210 T01720117 52008
KCFV 191352Z AUTO 17007KT 10SM CLR 13/11 A3015 RMK AO2 SLP207 T01330106
KCFV 191252Z AUTO 16004KT 10SM CLR 10/08 A3014 RMK AO2 SLP204 T01000083
KCFV 191152Z AUTO 15004KT 10SM CLR 11/08 A3013 RMK AO2 SLP202 T01060083 10117 20094 53007
KCFV 191052Z AUTO 16004KT 10SM CLR 10/08 A3013 RMK AO2 SLP199 T01000083
KCFV 190952Z AUTO 17005KT 10SM CLR 10/08 A3011 RMK AO2 SLP193 T01000078
KCFV 190852Z AUTO 15003KT 10SM CLR 10/08 A3011 RMK AO2 SLP192 T01000083 51008
KCFV 190752Z AUTO 15005KT 10SM CLR 11/09 A3010 RMK AO2 SLP190 T01110089
KCFV 190652Z AUTO 14004KT 10SM CLR 11/09 A3009 RMK AO2 SLP188 T01060089
KCFV 190552Z AUTO 15004KT 10SM CLR 11/08 A3008 RMK AO2 SLP185 T01060083 10194 20106 402500083 51006
KCFV 190452Z AUTO 15005KT 10SM CLR 12/09 A3008 RMK AO2 SLP184 T01170089
KCFV 190352Z AUTO 16003KT 10SM CLR 13/09 A3008 RMK AO2 SLP183 T01330094
KCFV 190252Z AUTO 17006KT 10SM CLR 13/09 A3007 RMK AO2 SLP180 T01280094 51011
KCFV 190152Z AUTO 15004KT 10SM CLR 15/09 A3007 RMK AO2 SLP181 T01500094
KCFV 190052Z AUTO 14003KT 10SM CLR 18/10 A3006 RMK AO2 SLP178 T01780100
KCFV 182352Z AUTO 17007KT 10SM CLR 19/10 A3003 RMK AO2 SLP168 T01940100 10250 20194 53003
KCFV 182252Z AUTO 18009KT 10SM CLR 22/11 A3003 RMK AO2 SLP165 T02170106
KCFV 182152Z AUTO 17011G19KT 10SM CLR 24/11 A3002 RMK AO2 SLP164 T02390106
KCFV 182052Z AUTO 18013G20KT 10SM CLR 25/10 A3002 RMK AO2 SLP163 T02500100 56016
KCFV 181952Z AUTO 18013G20KT 10SM CLR 24/11 A3003 RMK AO2 PK WND 19026/1856 SLP164 T02440106
KCFV 181852Z AUTO 19018G24KT 10SM CLR 23/10 A3004 RMK AO2 SLP169 T02330100
KCFV 181752Z AUTO 18017G25KT 10SM CLR 22/09 A3007 RMK AO2 SLP180 T02220089 10222 20083 58015
KCFV 181652Z AUTO 20014G22KT 10SM CLR 20/08 A3009 RMK AO2 PK WND 19027/1618 SLP187 T02000083
KCFV 181552Z AUTO 19015KT 10SM CLR 19/08 A3010 RMK AO2 SLP191 T01890083
KCFV 181452Z AUTO 18012G16KT 10SM CLR 16/09 A3011 RMK AO2 SLP196 T01610089 53007
KCFV 181352Z AUTO 17008KT 10SM CLR 12/07 A3010 RMK AO2 SLP193 T01170072
KCFV 181252Z AUTO 17004KT 10SM CLR 09/07 A3009 RMK AO2 SLP190 T00890067
KCFV 181152Z AUTO 16005KT 10SM CLR 09/06 A3009 RMK AO2 SLP191 T00890061 10111 20083 58000
KCFV 181052Z AUTO 16006KT 10SM CLR 09/07 A3010 RMK AO2 SLP190 T00890067
KCFV 180952Z AUTO 15005KT 10SM CLR 09/07 A3010 RMK AO2 SLP189 T00940072
KCFV 180852Z AUTO 16005KT 10SM CLR 10/07 A3010 RMK AO2 SLP189 T01000072 58012